Observations for GUERNSEY AIRPORT, United Kingdom (EGJB)

EGJB 171920Z 25006KT 9999 FEW020 17/13 Q1018
EGJB 171850Z 23005KT 9999 FEW020 17/13 Q1018
EGJB 171820Z 22006KT 9999 FEW022 17/13 Q1018
EGJB 171750Z 23006KT 9999 FEW022 18/13 Q1018
EGJB 171720Z 22006KT 9999 FEW022 18/12 Q1018
EGJB 171650Z 22006KT 9999 FEW024 19/12 Q1018
EGJB 171620Z 25007KT 200V290 9999 FEW024 20/12 Q1018
EGJB 171550Z 28008KT 250V310 9999 FEW022 20/11 Q1019
EGJB 171520Z 27009KT 230V300 9999 FEW022 19/12 Q1019
EGJB 171450Z 22010KT 9999 FEW030 20/12 Q1019
EGJB 171420Z 23009KT 9999 FEW030 21/12 Q1019
EGJB 171350Z 24010KT 9999 FEW025 20/12 Q1019
EGJB 171320Z 25009KT 9999 FEW022 20/12 Q1019
EGJB 171250Z 28012KT 9999 FEW018 19/12 Q1019
EGJB 171220Z 24010KT 9999 FEW016 19/13 Q1019
EGJB 171150Z 23010KT 9999 FEW023 20/14 Q1019
EGJB 171120Z 21009KT 9999 FEW023 18/13 Q1019
EGJB 171050Z 23011KT 9999 FEW023 18/14 Q1019
EGJB 171020Z 28010KT 9999 FEW023 19/11 Q1019
EGJB 170950Z 29005KT 240V320 9999 FEW023 BKN045 18/11 Q1019 
EGJB 170920Z 35005KT 9999 VCSH FEW023 BKN040 17/12 Q1019
EGJB 170850Z 30010KT 270V340 9999 8000N -SHRA FEW024 BKN040 16/13 Q1019 
EGJB 170820Z 28012KT 9999 VCSH FEW024 SCT042 16/14 Q1018
EGJB 170750Z 27010KT 9999 FEW024 18/14 Q1018
EGJB 170720Z 25009KT 9999 FEW024 17/14 Q1018
EGJB 170650Z 24008KT 9999 FEW028 16/15 Q1018
EGJB 170620Z 24007KT 9999 FEW028 16/15 Q1018
EGJB 170550Z 24006KT 9999 FEW028 16/15 Q1018
EGJB 170520Z 23006KT 9999 FEW028 15/14 Q1017
EGJB 170450Z 23004KT 9999 FEW028 14/14 Q1017
EGJB 170420Z 23004KT CAVOK 14/14 Q1017  
EGJB 170350Z 25004KT CAVOK 14/13 Q1017  
EGJB 170320Z 25004KT 9999 FEW038 14/13 Q1017
EGJB 170250Z 27003KT 9999 FEW038 14/13 Q1017
EGJB 170150Z 31003KT 9999 FEW038 15/13 Q1017
EGJB 170050Z 29003KT CAVOK 15/14 Q1017  
EGJB 162350Z 26006KT CAVOK 15/14 Q1017  
EGJB 162250Z 27009KT CAVOK 16/14 Q1017  
EGJB 162150Z 27011KT 9999 FEW018 SCT040 16/14 Q1017 
EGJB 162050Z 28012KT 9999 FEW018 SCT040 17/14 Q1017 
EGJB 162020Z 28011KT 9999 FEW018 BKN040 18/13 Q1016 
EGJB 161950Z 28013KT 9999 FEW016 BKN038 18/13 Q1016 
EGJB 161920Z 28013KT 9999 FEW016 BKN038 18/14 Q1016 
EGJB 161850Z 29010KT 9999 FEW016 SCT038 18/15 Q1015